Time;durP1;ratioP1;P1;durP2;ratioP2;P2;SDS_P1;SDS_P2;PMS_P1;PMS_P2;Temp;Humidity;BMP_temperature;BMP_pressure;BME280_temperature;BME280_humidity;BME280_pressure;Samples;Min_cycle;Max_cycle;Signal;HPM_P1;HPM_P2
2023/09/23 00:00:39;;;;;;;3.75;1.40;;;;;;;14.20;100.00;100243.75;6228078;28;20049;-71
2023/09/23 00:03:41;;;;;;;3.65;1.30;;;;;;;14.20;100.00;100256.94;6228551;28;20058;-71
2023/09/23 00:06:43;;;;;;;3.47;1.40;;;;;;;14.21;100.00;100253.34;6228512;28;20188;-71
2023/09/23 00:09:44;;;;;;;3.30;1.40;;;;;;;14.24;100.00;100263.69;6227957;28;20183;-71
2023/09/23 00:12:47;;;;;;;2.50;1.20;;;;;;;14.21;100.00;100263.91;6227972;28;20053;-71
2023/09/23 00:15:49;;;;;;;3.10;1.00;;;;;;;14.24;100.00;100257.56;6228143;28;20049;-71
2023/09/23 00:18:51;;;;;;;2.08;1.10;;;;;;;14.25;100.00;100262.72;6227631;28;20442;-71
2023/09/23 00:21:54;;;;;;;1.98;1.25;;;;;;;14.27;100.00;100268.75;6228054;28;20104;-70
2023/09/23 00:24:55;;;;;;;1.65;1.10;;;;;;;14.28;100.00;100274.88;6228029;28;20133;-71
2023/09/23 00:27:58;;;;;;;5.05;1.73;;;;;;;14.31;100.00;100274.66;6227627;28;20386;-71
2023/09/23 00:31:05;;;;;;;1.95;1.15;;;;;;;14.34;100.00;100271.75;6227465;28;20050;-71
2023/09/23 00:34:07;;;;;;;4.88;1.38;;;;;;;14.34;100.00;100272.59;6227512;28;20054;-71
2023/09/23 00:37:08;;;;;;;3.33;0.80;;;;;;;14.28;100.00;100266.94;6227491;28;20057;-71
2023/09/23 00:40:17;;;;;;;3.20;1.00;;;;;;;14.27;100.00;100274.03;6226941;28;20064;-72
2023/09/23 00:43:20;;;;;;;2.17;1.13;;;;;;;14.20;100.00;100281.56;6227412;28;20050;-71
2023/09/23 00:46:23;;;;;;;1.02;0.88;;;;;;;14.19;100.00;100284.34;6227418;28;20064;-71
2023/09/23 00:49:27;;;;;;;3.67;1.38;;;;;;;14.12;100.00;100289.25;6227275;28;20188;-70
2023/09/23 00:52:28;;;;;;;1.60;1.00;;;;;;;14.08;100.00;100289.59;6226936;28;20156;-70
2023/09/23 00:55:31;;;;;;;2.67;1.15;;;;;;;14.05;100.00;100295.97;6227030;28;20426;-71
2023/09/23 00:58:36;;;;;;;3.58;1.17;;;;;;;14.03;100.00;100304.94;6226829;28;20042;-71
2023/09/23 01:09:33;;;;;;;1.77;1.10;;;;;;;14.00;100.00;100319.25;6225786;28;20042;-71
2023/09/23 01:12:34;;;;;;;3.88;1.48;;;;;;;13.98;100.00;100315.84;6226953;28;20057;-72
2023/09/23 01:15:43;;;;;;;2.15;0.98;;;;;;;13.99;100.00;100322.84;6226610;28;20104;-71
2023/09/23 01:18:45;;;;;;;5.85;1.02;;;;;;;13.98;100.00;100315.00;6226509;28;20056;-71
2023/09/23 01:21:48;;;;;;;2.17;1.05;;;;;;;14.01;100.00;100320.09;6226504;28;20343;-72
2023/09/23 01:24:51;;;;;;;2.78;1.52;;;;;;;13.96;100.00;100317.78;6226623;28;20045;-70
2023/09/23 01:27:52;;;;;;;1.52;1.02;;;;;;;13.95;100.00;100326.66;6226359;28;20050;-70
2023/09/23 01:30:54;;;;;;;2.63;1.10;;;;;;;13.93;100.00;100323.28;6226297;28;20054;-70
2023/09/23 01:33:56;;;;;;;2.47;1.00;;;;;;;13.94;100.00;100319.69;6226379;28;20050;-70
2023/09/23 01:36:57;;;;;;;1.60;0.85;;;;;;;13.96;100.00;100323.06;6226125;28;20112;-70
2023/09/23 01:40:00;;;;;;;1.67;1.00;;;;;;;13.92;100.00;100321.59;6224952;28;20059;-71
2023/09/23 01:43:01;;;;;;;2.30;1.10;;;;;;;13.90;100.00;100331.47;6225747;28;20046;-70
2023/09/23 01:46:04;;;;;;;2.80;1.40;;;;;;;13.92;100.00;100332.16;6226352;28;20054;-71
2023/09/23 01:49:05;;;;;;;2.70;1.52;;;;;;;13.92;100.00;100337.47;6225812;28;20046;-70
2023/09/23 01:52:06;;;;;;;4.18;2.22;;;;;;;13.94;100.00;100335.53;6226265;28;20144;-70
2023/09/23 01:55:12;;;;;;;4.00;1.85;;;;;;;13.93;100.00;100334.69;6226044;28;20053;-70
2023/09/23 01:58:14;;;;;;;4.97;2.28;;;;;;;13.94;100.00;100346.09;6225814;28;20578;-71
2023/09/23 02:01:15;;;;;;;5.00;1.95;;;;;;;14.01;100.00;100349.16;6225863;28;20054;-71
2023/09/23 02:04:17;;;;;;;4.53;2.70;;;;;;;13.94;100.00;100352.25;6226290;28;20049;-71
2023/09/23 02:07:19;;;;;;;5.15;2.47;;;;;;;13.94;100.00;100356.66;6229430;28;20049;-71
2023/09/23 02:10:24;;;;;;;4.38;2.55;;;;;;;13.93;100.00;100350.53;6230613;28;20045;-70
2023/09/23 02:13:28;;;;;;;4.13;2.30;;;;;;;13.94;100.00;100354.91;6230713;28;20132;-71
2023/09/23 02:16:29;;;;;;;5.82;3.15;;;;;;;13.90;100.00;100353.44;6230778;28;20127;-71
2023/09/23 02:19:30;;;;;;;7.75;3.10;;;;;;;13.91;100.00;100356.91;6230499;28;20045;-71
2023/09/23 02:22:32;;;;;;;5.65;3.25;;;;;;;13.92;100.00;100363.88;6230484;28;20054;-71
2023/09/23 02:25:35;;;;;;;6.53;3.80;;;;;;;13.89;100.00;100362.28;6230731;28;20054;-72
2023/09/23 02:28:36;;;;;;;5.68;3.50;;;;;;;13.87;100.00;100371.28;6230261;28;20046;-72
2023/09/23 02:31:38;;;;;;;6.07;3.65;;;;;;;13.88;100.00;100368.53;6230585;28;20057;-71
2023/09/23 02:34:39;;;;;;;8.02;4.68;;;;;;;13.86;100.00;100374.91;6230243;28;20054;-72
2023/09/23 02:37:41;;;;;;;8.98;4.72;;;;;;;13.84;100.00;100375.00;6230414;28;20070;-71
2023/09/23 02:40:44;;;;;;;6.47;4.63;;;;;;;13.80;100.00;100381.44;6230056;28;20057;-72
2023/09/23 02:43:47;;;;;;;11.38;6.50;;;;;;;13.80;100.00;100378.81;6251485;23;20581;-71
2023/09/23 02:46:49;;;;;;;11.25;5.60;;;;;;;13.80;100.00;100384.09;6230074;28;20092;-70
2023/09/23 02:49:50;;;;;;;9.73;5.65;;;;;;;13.82;100.00;100391.91;6229137;28;20049;-71
2023/09/23 02:52:52;;;;;;;12.10;6.07;;;;;;;13.82;100.00;100392.75;6229796;28;20057;-70
2023/09/23 02:56:05;;;;;;;13.90;6.32;;;;;;;13.79;100.00;100397.41;6229797;28;20049;-71
2023/09/23 02:59:13;;;;;;;12.45;5.93;;;;;;;13.75;100.00;100395.94;6229561;28;20050;-70
2023/09/23 03:02:20;;;;;;;11.13;6.85;;;;;;;13.66;100.00;100405.38;6230004;28;20049;-70
2023/09/23 03:05:26;;;;;;;15.55;6.93;;;;;;;13.61;100.00;100408.34;6229731;28;20050;-70
2023/09/23 03:08:29;;;;;;;12.85;6.65;;;;;;;13.67;100.00;100413.19;6229753;28;20042;-71
2023/09/23 03:11:38;;;;;;;13.98;7.00;;;;;;;13.66;100.00;100414.13;6229435;28;20057;-71
2023/09/23 03:14:45;;;;;;;14.15;7.88;;;;;;;13.63;100.00;100427.56;6229313;28;20053;-71
2023/09/23 03:17:51;;;;;;;12.18;7.25;;;;;;;13.65;100.00;100425.66;6229382;28;20071;-71
2023/09/23 03:20:52;;;;;;;15.30;7.88;;;;;;;13.63;100.00;100432.00;6228922;28;20050;-71
2023/09/23 03:23:54;;;;;;;12.95;7.60;;;;;;;13.56;100.00;100434.22;6229195;28;20049;-71
2023/09/23 03:26:59;;;;;;;10.85;7.13;;;;;;;13.54;100.00;100438.78;6229122;28;20057;-71
2023/09/23 03:30:02;;;;;;;14.90;7.53;;;;;;;13.43;100.00;100442.16;6228947;28;20093;-71
2023/09/23 03:33:04;;;;;;;15.20;7.38;;;;;;;13.52;100.00;100443.31;6228852;28;20065;-70
2023/09/23 03:36:13;;;;;;;11.15;7.25;;;;;;;13.52;100.00;100461.78;6229051;28;20049;-71
2023/09/23 03:39:17;;;;;;;11.93;7.20;;;;;;;13.45;100.00;100461.41;6218720;28;20046;-70
2023/09/23 03:42:20;;;;;;;13.38;7.38;;;;;;;13.49;100.00;100458.53;6196412;28;20128;-70
2023/09/23 03:45:21;;;;;;;14.93;7.78;;;;;;;13.43;100.00;100470.34;6204066;28;20371;-70
2023/09/23 03:48:22;;;;;;;15.30;7.90;;;;;;;13.44;100.00;100474.69;6204258;28;20058;-70
2023/09/23 03:51:24;;;;;;;12.70;7.43;;;;;;;13.41;100.00;100474.91;6201453;28;20427;-71
2023/09/23 03:54:25;;;;;;;12.82;7.50;;;;;;;13.43;100.00;100475.63;6196053;28;20059;-71
2023/09/23 03:57:28;;;;;;;12.30;6.78;;;;;;;13.33;100.00;100483.34;6204317;28;20427;-70
2023/09/23 04:00:29;;;;;;;11.85;7.45;;;;;;;13.35;100.00;100491.16;6203657;28;20053;-70
2023/09/23 04:03:34;;;;;;;10.57;6.70;;;;;;;13.42;100.00;100497.72;6203958;28;20058;-70
2023/09/23 04:06:35;;;;;;;14.23;7.07;;;;;;;13.31;100.00;100500.25;6203740;28;20359;-70
2023/09/23 04:09:36;;;;;;;12.10;7.22;;;;;;;13.30;100.00;100501.19;6203736;28;20046;-70
2023/09/23 04:12:42;;;;;;;12.43;6.78;;;;;;;13.28;100.00;100506.59;6203651;28;20053;-70
2023/09/23 04:15:44;;;;;;;13.15;6.30;;;;;;;13.34;100.00;100507.94;6203886;28;20061;-70
2023/09/23 04:18:46;;;;;;;12.55;6.72;;;;;;;13.35;100.00;100514.91;6203132;28;20046;-71
2023/09/23 04:21:47;;;;;;;12.45;6.40;;;;;;;13.38;100.00;100520.00;6203191;28;20050;-70
2023/09/23 04:24:49;;;;;;;10.93;6.28;;;;;;;13.40;100.00;100523.38;6191862;28;20117;-70
2023/09/23 04:27:52;;;;;;;11.63;6.55;;;;;;;13.36;100.00;100529.81;6203403;28;20050;-70
2023/09/23 04:30:54;;;;;;;11.85;6.25;;;;;;;13.35;100.00;100542.19;6202543;28;20532;-71
2023/09/23 04:33:55;;;;;;;14.00;6.40;;;;;;;13.30;100.00;100536.34;6201401;28;20355;-70
2023/09/23 04:36:57;;;;;;;10.05;6.57;;;;;;;13.36;100.00;100532.47;6203409;28;20055;-70
2023/09/23 04:39:59;;;;;;;9.75;6.03;;;;;;;13.32;100.00;100550.28;6202704;28;20081;-70
2023/09/23 04:43:03;;;;;;;11.82;6.15;;;;;;;13.28;100.00;100554.09;6202896;28;20046;-71
2023/09/23 04:46:05;;;;;;;9.18;5.50;;;;;;;13.37;100.00;100560.53;6202869;28;20141;-70
2023/09/23 04:49:07;;;;;;;11.90;6.35;;;;;;;13.30;100.00;100569.81;6203084;28;20046;-70
2023/09/23 04:52:09;;;;;;;9.85;5.30;;;;;;;13.29;100.00;100570.75;6202601;28;20200;-71
2023/09/23 04:55:11;;;;;;;7.20;4.78;;;;;;;13.29;100.00;100578.69;6202707;28;20051;-71
2023/09/23 04:58:14;;;;;;;8.27;4.07;;;;;;;13.10;100.00;100586.97;6202616;28;20058;-70
2023/09/23 05:01:16;;;;;;;9.57;4.20;;;;;;;13.06;100.00;100586.31;6202275;28;20061;-70
2023/09/23 05:04:18;;;;;;;6.45;4.13;;;;;;;13.00;100.00;100586.72;6202484;28;20054;-71
2023/09/23 05:07:20;;;;;;;4.82;3.30;;;;;;;13.02;100.00;100598.00;6202412;28;20066;-70
2023/09/23 05:10:23;;;;;;;7.68;3.85;;;;;;;13.01;100.00;100596.31;6202411;28;20050;-70
2023/09/23 05:13:26;;;;;;;6.00;3.80;;;;;;;12.98;100.00;100612.34;6202214;28;20054;-70
2023/09/23 05:16:28;;;;;;;4.40;3.08;;;;;;;12.95;100.00;100618.69;6202284;28;20061;-70
2023/09/23 05:19:31;;;;;;;4.72;3.28;;;;;;;12.99;100.00;100627.25;6198842;28;20057;-70
2023/09/23 05:22:32;;;;;;;6.45;3.65;;;;;;;13.04;100.00;100630.44;6202316;28;20055;-70
2023/09/23 05:25:35;;;;;;;6.43;3.90;;;;;;;13.01;100.00;100635.88;6202121;28;20065;-71
2023/09/23 05:28:38;;;;;;;4.22;2.80;;;;;;;12.89;100.00;100637.53;6201874;28;20057;-71
2023/09/23 05:31:40;;;;;;;6.60;3.05;;;;;;;12.83;100.00;100637.94;6202070;28;20057;-70
2023/09/23 05:34:42;;;;;;;4.38;2.70;;;;;;;12.82;100.00;100646.78;6190686;28;20121;-70
2023/09/23 05:37:44;;;;;;;8.15;3.10;;;;;;;12.86;100.00;100648.28;6190285;28;20053;-70
2023/09/23 05:40:46;;;;;;;4.20;2.97;;;;;;;12.83;100.00;100645.00;6193920;28;20450;-71
2023/09/23 05:43:49;;;;;;;5.00;2.90;;;;;;;12.87;100.00;100652.63;6192269;28;20185;-70
2023/09/23 05:46:50;;;;;;;4.45;2.72;;;;;;;12.89;100.00;100650.72;6189184;28;20046;-71
2023/09/23 05:49:52;;;;;;;3.67;2.75;;;;;;;12.84;100.00;100670.41;6188643;28;20077;-70
2023/09/23 05:52:55;;;;;;;4.95;3.03;;;;;;;12.80;100.00;100674.19;6189455;28;20094;-70
2023/09/23 05:55:57;;;;;;;5.05;3.00;;;;;;;12.83;100.00;100677.50;6193412;28;20057;-71
2023/09/23 05:58:59;;;;;;;5.30;3.03;;;;;;;12.85;100.00;100680.00;6198138;28;20352;-70
2023/09/23 06:02:04;;;;;;;4.65;2.85;;;;;;;12.90;100.00;100681.44;6189908;28;20054;-70
2023/09/23 06:05:06;;;;;;;6.68;3.47;;;;;;;12.92;100.00;100684.81;6188809;28;20065;-69
2023/09/23 06:08:07;;;;;;;6.10;3.63;;;;;;;12.88;100.00;100693.00;6188971;28;20057;-70
2023/09/23 06:11:11;;;;;;;4.65;2.80;;;;;;;12.90;100.00;100694.63;6189267;28;20050;-70
2023/09/23 06:14:13;;;;;;;5.18;3.25;;;;;;;12.92;100.00;100702.44;6188250;28;20046;-70
2023/09/23 06:17:15;;;;;;;4.47;3.08;;;;;;;12.98;100.00;100715.22;6194007;28;20061;-70
2023/09/23 06:20:16;;;;;;;5.40;2.40;;;;;;;13.04;100.00;100706.09;6192512;28;20454;-71
2023/09/23 06:23:18;;;;;;;4.40;2.85;;;;;;;13.02;100.00;100707.97;6194799;28;20046;-70
2023/09/23 06:26:19;;;;;;;4.45;2.58;;;;;;;13.00;100.00;100721.25;6190130;28;20074;-70
2023/09/23 06:29:22;;;;;;;5.20;3.33;;;;;;;12.95;100.00;100721.56;6189021;28;20051;-70
2023/09/23 06:32:23;;;;;;;4.72;3.47;;;;;;;12.89;100.00;100721.06;6190331;28;20047;-70
2023/09/23 06:35:25;;;;;;;4.88;2.88;;;;;;;12.88;100.00;100722.88;6194215;28;20050;-70
2023/09/23 06:38:26;;;;;;;8.75;3.55;;;;;;;12.89;100.00;100731.63;6199453;28;20042;-70
2023/09/23 06:41:28;;;;;;;9.57;3.80;;;;;;;12.85;100.00;100732.75;6200781;28;20042;-70
2023/09/23 06:44:30;;;;;;;6.85;3.70;;;;;;;12.84;100.00;100731.91;6200994;28;20050;-70
2023/09/23 06:47:32;;;;;;;5.15;2.90;;;;;;;12.85;100.00;100738.03;6201255;28;20046;-70
2023/09/23 06:50:33;;;;;;;5.65;3.70;;;;;;;12.87;100.00;100733.53;6200810;28;20046;-70
2023/09/23 06:53:35;;;;;;;9.45;4.88;;;;;;;12.82;100.00;100740.88;6193034;28;20054;-70
2023/09/23 06:56:37;;;;;;;9.23;4.25;;;;;;;12.87;100.00;100742.28;6203442;28;20050;-70
2023/09/23 06:59:40;;;;;;;7.78;3.90;;;;;;;12.78;100.00;100756.06;6204108;28;20431;-70
2023/09/23 07:02:41;;;;;;;8.23;4.57;;;;;;;12.76;100.00;100757.91;6205188;28;20058;-70
2023/09/23 07:05:43;;;;;;;9.45;4.45;;;;;;;12.76;100.00;100767.63;6205059;28;20477;-70
2023/09/23 07:08:45;;;;;;;8.77;5.10;;;;;;;12.75;100.00;100769.41;6204758;28;20370;-70
2023/09/23 07:11:46;;;;;;;8.95;4.97;;;;;;;12.81;100.00;100770.81;6193989;28;20419;-70
2023/09/23 07:14:49;;;;;;;11.23;6.20;;;;;;;12.91;100.00;100775.44;6185522;28;20086;-70
2023/09/23 07:17:50;;;;;;;11.95;5.65;;;;;;;13.04;100.00;100786.06;6191524;28;20046;-70
2023/09/23 07:20:56;;;;;;;9.93;5.55;;;;;;;13.12;100.00;100783.78;6199508;28;20427;-70
2023/09/23 07:23:58;;;;;;;12.70;5.90;;;;;;;13.12;100.00;100786.41;6200127;28;20082;-70
2023/09/23 07:26:59;;;;;;;11.88;6.40;;;;;;;13.16;100.00;100803.75;6195844;28;20055;-70
2023/09/23 07:30:03;;;;;;;12.90;6.57;;;;;;;13.24;100.00;100798.03;6197527;28;20453;-70
2023/09/23 07:33:05;;;;;;;13.32;6.45;;;;;;;13.30;100.00;100807.34;6204672;28;20050;-70
2023/09/23 07:36:10;;;;;;;13.07;6.45;;;;;;;13.43;100.00;100810.91;6199090;28;20054;-71
2023/09/23 07:39:12;;;;;;;12.15;6.88;;;;;;;13.45;100.00;100814.31;6195211;28;20461;-70
2023/09/23 07:42:14;;;;;;;22.17;8.38;;;;;;;13.40;100.00;100826.94;6204289;28;20058;-70
2023/09/23 07:45:17;;;;;;;19.17;8.38;;;;;;;13.27;100.00;100824.25;6204059;28;20474;-70
2023/09/23 07:48:18;;;;;;;12.48;7.63;;;;;;;13.26;100.00;100835.72;6204242;28;20042;-70
2023/09/23 07:51:19;;;;;;;17.00;8.95;;;;;;;13.18;100.00;100846.75;6201167;28;20324;-69
2023/09/23 07:54:21;;;;;;;22.65;9.68;;;;;;;13.26;100.00;100848.06;6203978;28;20046;-71
2023/09/23 07:57:24;;;;;;;18.83;10.55;;;;;;;13.21;100.00;100846.53;6195435;28;20047;-70
2023/09/23 08:00:27;;;;;;;18.25;8.38;;;;;;;13.34;100.00;100857.19;6200170;28;20061;-70
2023/09/23 08:03:28;;;;;;;23.27;10.38;;;;;;;13.34;100.00;100866.91;6202804;28;20048;-71
2023/09/23 08:06:30;;;;;;;16.52;9.68;;;;;;;13.45;100.00;100867.09;6203294;28;20046;-70
2023/09/23 08:09:31;;;;;;;18.40;9.40;;;;;;;13.53;100.00;100867.44;6203398;28;20446;-70
2023/09/23 08:12:34;;;;;;;15.23;8.52;;;;;;;13.64;100.00;100885.25;6203405;28;20053;-70
2023/09/23 08:15:37;;;;;;;13.63;8.73;;;;;;;13.56;100.00;100890.16;6203696;28;20351;-70
2023/09/23 08:18:38;;;;;;;15.68;9.07;;;;;;;13.59;100.00;100895.28;6203469;28;20057;-70
2023/09/23 08:21:40;;;;;;;13.45;7.90;;;;;;;13.61;100.00;100894.22;6203822;28;20042;-70
2023/09/23 08:24:42;;;;;;;13.23;6.95;;;;;;;13.73;100.00;100908.44;6203415;28;20390;-70
2023/09/23 08:27:44;;;;;;;16.48;8.10;;;;;;;13.74;100.00;100917.22;6203519;28;20089;-70
2023/09/23 08:30:48;;;;;;;11.00;7.20;;;;;;;13.65;100.00;100913.34;6202913;28;20054;-70
2023/09/23 08:33:49;;;;;;;13.95;8.13;;;;;;;13.67;100.00;100919.38;6203436;28;20046;-70
2023/09/23 08:36:50;;;;;;;17.73;8.90;;;;;;;13.74;100.00;100920.69;6203152;28;20359;-71
2023/09/23 08:39:52;;;;;;;15.57;7.50;;;;;;;13.82;100.00;100939.56;6203364;28;20050;-70
2023/09/23 08:46:02;;;;;;;13.75;8.30;;;;;;;13.89;100.00;100930.25;6185132;28;20055;-72
2023/09/23 08:49:06;;;;;;;17.67;8.82;;;;;;;14.00;100.00;100923.47;6198152;28;20053;-71
2023/09/23 08:52:09;;;;;;;20.60;8.95;;;;;;;13.95;100.00;100943.09;6207623;28;20546;-71
2023/09/23 08:55:11;;;;;;;16.10;8.73;;;;;;;13.89;100.00;100940.00;6212348;28;20065;-71
2023/09/23 08:58:13;;;;;;;17.75;8.75;;;;;;;13.93;100.00;100952.91;6226902;28;20046;-71
2023/09/23 09:01:17;;;;;;;17.02;8.55;;;;;;;14.03;100.00;100947.88;6222884;28;20047;-72
2023/09/23 09:04:18;;;;;;;14.00;7.97;;;;;;;14.20;100.00;100939.69;6208973;28;20136;-71
2023/09/23 09:07:19;;;;;;;16.67;8.40;;;;;;;14.33;100.00;100947.69;6206208;28;20433;-70
2023/09/23 09:10:21;;;;;;;18.77;8.93;;;;;;;14.47;100.00;100952.06;6214038;28;20042;-71
2023/09/23 09:13:22;;;;;;;18.15;8.02;;;;;;;14.42;100.00;100954.16;6213622;28;20052;-71
2023/09/23 09:16:27;;;;;;;18.08;8.50;;;;;;;14.42;100.00;100962.09;6218263;28;20057;-71
2023/09/23 09:19:28;;;;;;;18.20;8.70;;;;;;;14.41;100.00;100958.59;6220902;28;20450;-71
2023/09/23 09:22:30;;;;;;;15.85;8.38;;;;;;;14.40;100.00;100961.38;6222575;28;20046;-71
2023/09/23 09:25:31;;;;;;;17.50;9.43;;;;;;;14.43;100.00;100961.13;6226661;28;20057;-71
2023/09/23 09:28:33;;;;;;;17.00;9.13;;;;;;;14.46;100.00;100960.94;6226521;28;20050;-71
2023/09/23 09:31:38;;;;;;;15.30;9.15;;;;;;;14.63;100.00;100968.66;6226348;28;20046;-71
2023/09/23 09:34:45;;;;;;;17.35;9.13;;;;;;;14.66;100.00;100962.28;6216140;28;20053;-71
2023/09/23 09:37:47;;;;;;;16.40;9.00;;;;;;;14.71;100.00;100974.25;6211563;28;20363;-71
2023/09/23 09:40:51;;;;;;;18.83;9.23;;;;;;;14.76;100.00;100978.38;6212698;28;20052;-71
2023/09/23 09:43:53;;;;;;;20.60;8.55;;;;;;;14.80;100.00;100978.06;6216976;28;20060;-71
2023/09/23 09:46:56;;;;;;;16.08;8.55;;;;;;;14.84;100.00;100978.72;6212389;28;20185;-71
2023/09/23 09:49:59;;;;;;;17.90;7.60;;;;;;;14.84;100.00;100991.97;6224901;28;20132;-71
2023/09/23 09:53:01;;;;;;;13.50;7.28;;;;;;;14.80;100.00;100988.66;6201997;28;20054;-70
2023/09/23 09:56:04;;;;;;;14.40;8.32;;;;;;;14.83;100.00;100985.81;6201465;28;20050;-70
2023/09/23 09:59:06;;;;;;;11.80;6.80;;;;;;;14.85;100.00;100998.94;6201308;28;20432;-70
2023/09/23 10:02:10;;;;;;;14.85;7.40;;;;;;;14.83;100.00;100991.09;6201777;28;20046;-70
2023/09/23 10:05:17;;;;;;;18.55;6.90;;;;;;;14.89;100.00;101000.44;6201706;28;20047;-70
2023/09/23 10:08:19;;;;;;;10.15;6.72;;;;;;;14.92;100.00;101002.88;6201559;28;20128;-70
2023/09/23 10:11:34;;;;;;;12.25;6.38;;;;;;;14.91;100.00;101001.19;6201294;28;20058;-70
2023/09/23 10:14:37;;;;;;;11.63;7.20;;;;;;;14.95;100.00;101005.31;6201434;28;20058;-70
2023/09/23 10:17:43;;;;;;;10.85;6.32;;;;;;;14.95;100.00;101013.25;6201442;28;20272;-70
2023/09/23 10:20:48;;;;;;;8.77;5.70;;;;;;;15.04;100.00;101017.09;6201176;28;20148;-70
2023/09/23 10:23:51;;;;;;;9.40;5.88;;;;;;;15.02;100.00;101021.63;6201244;28;20145;-70
2023/09/23 10:26:53;;;;;;;10.75;6.18;;;;;;;15.02;100.00;101022.47;6202360;28;20053;-70
2023/09/23 10:29:55;;;;;;;7.68;4.63;;;;;;;15.04;100.00;101025.88;6205948;28;20399;-70
2023/09/23 10:32:58;;;;;;;8.98;5.57;;;;;;;15.20;100.00;101028.31;6206364;28;20088;-70
2023/09/23 10:36:00;;;;;;;9.20;5.38;;;;;;;15.18;100.00;101020.50;6206005;28;20054;-70
2023/09/23 10:39:06;;;;;;;8.77;4.90;;;;;;;15.17;100.00;101025.88;6205728;28;20371;-70
2023/09/23 10:42:13;;;;;;;8.05;4.60;;;;;;;15.20;100.00;101029.16;6205871;28;20046;-70
2023/09/23 10:45:16;;;;;;;6.97;4.72;;;;;;;15.22;100.00;101042.31;6205511;28;20058;-69
2023/09/23 10:48:19;;;;;;;7.38;4.60;;;;;;;15.28;100.00;101051.63;6205570;28;20046;-77
2023/09/23 10:51:22;;;;;;;8.13;5.13;;;;;;;15.32;100.00;101048.69;6205443;28;20451;-72
2023/09/23 10:54:24;;;;;;;7.95;4.20;;;;;;;15.36;100.00;101058.09;6205515;28;20046;-70
2023/09/23 10:57:25;;;;;;;9.15;5.35;;;;;;;15.16;100.00;101054.16;6205687;28;20387;-70
2023/09/23 11:00:28;;;;;;;7.97;5.30;;;;;;;15.28;100.00;101057.78;6205210;28;20042;-76
2023/09/23 11:03:31;;;;;;;14.15;4.97;;;;;;;15.29;100.00;101061.28;6205657;28;20050;-70
2023/09/23 11:06:33;;;;;;;9.73;5.35;;;;;;;15.28;100.00;101057.78;6205498;28;20050;-70
2023/09/23 11:09:36;;;;;;;10.00;5.07;;;;;;;15.46;100.00;101053.03;6204956;28;20132;-70
2023/09/23 11:12:37;;;;;;;9.68;5.20;;;;;;;15.55;100.00;101064.78;6205437;28;20050;-71
2023/09/23 11:15:40;;;;;;;6.88;4.53;;;;;;;15.61;100.00;101064.34;6205081;28;20124;-71
2023/09/23 11:18:44;;;;;;;6.70;4.70;;;;;;;15.54;100.00;101061.28;6205205;28;20054;-71
2023/09/23 11:21:46;;;;;;;9.57;4.25;;;;;;;15.47;100.00;101067.94;6204944;28;20085;-71
2023/09/23 11:24:49;;;;;;;10.07;4.43;;;;;;;15.43;100.00;101069.13;6207066;28;20051;-71
2023/09/23 11:27:52;;;;;;;6.15;4.78;;;;;;;15.32;100.00;101084.91;6217816;28;20079;-70
2023/09/23 11:30:54;;;;;;;7.38;4.15;;;;;;;15.38;100.00;101074.72;6212777;28;20053;-71
2023/09/23 11:33:57;;;;;;;8.07;4.70;;;;;;;15.35;100.00;101079.38;6217850;28;20073;-71
2023/09/23 11:36:59;;;;;;;8.77;4.50;;;;;;;15.49;100.00;101081.97;6220525;28;20050;-70
2023/09/23 11:40:00;;;;;;;7.47;4.30;;;;;;;15.66;100.00;101094.91;6219213;28;20439;-70
2023/09/23 11:43:02;;;;;;;4.97;3.67;;;;;;;15.67;100.00;101101.06;6212169;28;20058;-70
2023/09/23 11:46:03;;;;;;;6.57;3.85;;;;;;;15.63;100.00;101100.41;6215772;28;20054;-71
2023/09/23 11:49:06;;;;;;;4.20;3.25;;;;;;;15.66;100.00;101113.44;6220196;28;20057;-71
2023/09/23 11:52:12;;;;;;;8.40;4.03;;;;;;;15.61;100.00;101102.28;6228828;28;20050;-71
2023/09/23 11:55:13;;;;;;;5.32;3.50;;;;;;;15.61;100.00;101102.28;6228551;28;20136;-70
2023/09/23 11:58:15;;;;;;;8.13;4.03;;;;;;;15.71;100.00;101102.53;6222799;28;20081;-70
2023/09/23 12:01:19;;;;;;;4.63;3.30;;;;;;;15.62;100.00;101113.72;6219659;28;20458;-70
2023/09/23 12:04:22;;;;;;;7.95;3.28;;;;;;;15.47;100.00;101107.69;6217969;28;20137;-70
2023/09/23 12:07:24;;;;;;;8.82;3.45;;;;;;;15.43;100.00;101112.34;6228178;28;20054;-71
2023/09/23 12:10:26;;;;;;;7.78;3.72;;;;;;;15.41;100.00;101111.59;6228021;28;20076;-70
2023/09/23 12:13:27;;;;;;;12.80;3.92;;;;;;;15.55;100.00;101118.63;6215502;28;20453;-70
2023/09/23 12:16:29;;;;;;;5.35;3.63;;;;;;;15.59;100.00;101121.91;6228301;28;20058;-70
2023/09/23 12:19:32;;;;;;;6.00;3.45;;;;;;;15.58;100.00;101123.72;6227808;28;20056;-71
2023/09/23 12:22:33;;;;;;;5.88;2.60;;;;;;;15.62;100.00;101125.16;6227772;28;20042;-71
2023/09/23 12:25:34;;;;;;;3.17;2.20;;;;;;;16.12;100.00;101127.94;6227775;28;20073;-71
2023/09/23 12:28:36;;;;;;;3.08;2.13;;;;;;;16.20;100.00;101122.97;6227536;28;20058;-70
2023/09/23 12:31:38;;;;;;;3.22;1.63;;;;;;;16.12;100.00;101127.94;6227857;28;20042;-71
2023/09/23 12:34:41;;;;;;;3.78;1.92;;;;;;;16.13;100.00;101134.97;6227593;28;20050;-71
2023/09/23 12:37:42;;;;;;;2.40;1.85;;;;;;;16.03;100.00;101137.41;6225762;28;20057;-71
2023/09/23 12:40:44;;;;;;;3.40;1.75;;;;;;;15.98;100.00;101137.72;6216650;28;20056;-77
2023/09/23 12:43:45;;;;;;;4.63;2.03;;;;;;;16.10;100.00;101141.31;6227606;28;20093;-78
2023/09/23 12:46:47;;;;;;;5.15;1.63;;;;;;;16.18;100.00;101141.63;6227469;28;20057;-70
2023/09/23 12:49:50;;;;;;;1.80;1.25;;;;;;;16.23;100.00;101143.97;6226849;28;20101;-70
2023/09/23 12:52:52;;;;;;;4.60;1.67;;;;;;;16.13;100.00;101143.78;6227216;28;20540;-71
2023/09/23 12:55:53;;;;;;;1.83;1.13;;;;;;;16.07;100.00;101151.28;6227162;28;20056;-71
2023/09/23 12:58:55;;;;;;;3.08;1.33;;;;;;;15.98;100.00;101161.56;6218151;28;20370;-71
2023/09/23 13:01:57;;;;;;;2.63;1.42;;;;;;;16.00;100.00;101158.84;6226127;28;20050;-71
2023/09/23 13:04:59;;;;;;;6.55;1.70;;;;;;;15.98;100.00;101160.72;6226964;28;20060;-71
2023/09/23 13:08:01;;;;;;;2.83;1.42;;;;;;;16.08;100.00;101153.84;6226749;28;20430;-70
2023/09/23 13:11:02;;;;;;;6.70;1.30;;;;;;;16.70;100.00;101153.81;6204854;28;20050;-71
2023/09/23 13:14:04;;;;;;;4.47;1.38;;;;;;;17.24;100.00;101158.72;6189673;28;20365;-71
2023/09/23 13:17:06;;;;;;;3.85;1.75;;;;;;;17.68;100.00;101151.00;6191536;28;20046;-71
2023/09/23 13:20:10;;;;;;;3.85;1.40;;;;;;;18.19;100.00;101143.47;6188883;28;20057;-71
2023/09/23 13:23:11;;;;;;;2.33;1.13;;;;;;;18.66;100.00;101151.28;6180894;28;20094;-72
2023/09/23 13:26:13;;;;;;;3.33;1.08;;;;;;;18.56;100.00;101153.84;6178248;28;20051;-70
2023/09/23 13:29:14;;;;;;;2.65;1.35;;;;;;;18.17;100.00;101166.69;6177795;28;20055;-71
2023/09/23 13:32:17;;;;;;;4.40;0.90;;;;;;;17.77;100.00;101160.13;6178042;28;20351;-71
2023/09/23 13:35:20;;;;;;;2.53;0.85;;;;;;;17.78;100.00;101162.66;6177853;28;20058;-71
2023/09/23 13:38:21;;;;;;;2.65;1.38;;;;;;;17.63;100.00;101163.81;6177957;28;20057;-70
2023/09/23 13:41:23;;;;;;;2.70;0.80;;;;;;;17.25;100.00;101172.84;6177614;28;20051;-71
2023/09/23 13:44:24;;;;;;;2.75;1.17;;;;;;;17.55;100.00;101174.16;6191599;28;20061;-70
2023/09/23 13:47:27;;;;;;;1.67;1.00;;;;;;;17.57;100.00;101154.47;6215329;28;20125;-71
2023/09/23 13:50:29;;;;;;;3.65;1.50;;;;;;;17.70;100.00;101167.66;6221385;28;20134;-70
2023/09/23 13:53:31;;;;;;;1.63;0.82;;;;;;;17.75;100.00;101157.56;6226024;28;20461;-72
2023/09/23 13:56:32;;;;;;;3.25;1.10;;;;;;;17.40;100.00;101166.41;6217154;28;20361;-71
2023/09/23 13:59:34;;;;;;;1.42;0.77;;;;;;;17.37;100.00;101171.94;6221645;28;20054;-72
2023/09/23 14:02:35;;;;;;;2.85;0.70;;;;;;;17.27;100.00;101170.09;6225352;28;20042;-70
2023/09/23 14:05:38;;;;;;;2.50;1.00;;;;;;;17.13;100.00;101171.13;6216232;28;20057;-72